createdAt,value
2023-04-30T00:00:02.513Z,101880.13
2023-04-30T00:03:05.464Z,101877.50
2023-04-30T00:06:08.189Z,101874.88
2023-04-30T00:09:11.091Z,101876.78
2023-04-30T00:12:15.032Z,101882.28
2023-04-30T00:15:17.798Z,101884.06
2023-04-30T00:18:20.429Z,101893.69
2023-04-30T00:21:23.050Z,101890.94
2023-04-30T00:24:26.295Z,101892.06
2023-04-30T00:27:31.465Z,101899.16
2023-04-30T00:30:34.042Z,101898.44
2023-04-30T00:33:36.708Z,101900.06
2023-04-30T00:36:39.482Z,101898.44
2023-04-30T00:39:42.384Z,101902.00
2023-04-30T00:42:46.295Z,101917.13
2023-04-30T00:45:49.141Z,101921.63
2023-04-30T00:48:51.820Z,101915.50
2023-04-30T00:51:55.377Z,101912.84
2023-04-30T00:54:58.096Z,101916.38
2023-04-30T00:58:03.029Z,101918.13
2023-04-30T01:01:06.838Z,101922.63
2023-04-30T01:04:09.441Z,101928.78
2023-04-30T01:07:12.084Z,101934.16
2023-04-30T01:10:15.529Z,101930.56
2023-04-30T01:13:28.379Z,101935.84
2023-04-30T01:16:36.892Z,101937.69
2023-04-30T01:19:43.293Z,101941.22
2023-04-30T01:22:51.359Z,101932.38
2023-04-30T01:26:06.405Z,101936.84
2023-04-30T01:29:13.217Z,101932.50
2023-04-30T01:32:15.779Z,101933.31
2023-04-30T01:35:18.613Z,101935.13
2023-04-30T01:38:29.075Z,101939.47
2023-04-30T01:41:36.308Z,101941.31
2023-04-30T01:44:59.565Z,101942.28
2023-04-30T01:48:09.401Z,101936.13
2023-04-30T01:51:20.403Z,101944.06
2023-04-30T01:54:30.272Z,101945.78
2023-04-30T01:57:38.244Z,101959.00
2023-04-30T02:00:42.260Z,101951.97
2023-04-30T02:03:45.053Z,101962.53
2023-04-30T02:06:47.693Z,101967.00
2023-04-30T02:09:50.273Z,101963.53
2023-04-30T02:12:53.467Z,101966.13
2023-04-30T02:15:57.425Z,101963.53
2023-04-30T02:19:00.140Z,101972.34
2023-04-30T02:22:02.779Z,101964.41
2023-04-30T02:25:05.949Z,101964.44
2023-04-30T02:28:08.542Z,101976.75
2023-04-30T02:31:12.684Z,101974.13
2023-04-30T02:34:15.327Z,101978.53
2023-04-30T02:37:18.189Z,101977.69
2023-04-30T02:40:20.769Z,101976.81
2023-04-30T02:43:23.478Z,101983.81
2023-04-30T02:46:27.399Z,101979.47
2023-04-30T02:49:30.065Z,101981.22
2023-04-30T02:52:32.983Z,101984.75
2023-04-30T02:55:35.599Z,101979.47
2023-04-30T02:58:38.203Z,101985.59
2023-04-30T03:01:42.333Z,101986.53
2023-04-30T03:04:45.006Z,101987.38
2023-04-30T03:07:47.596Z,101991.75
2023-04-30T03:10:50.170Z,101992.66
2023-04-30T03:13:52.920Z,101986.53
2023-04-30T03:16:56.878Z,101988.28
2023-04-30T03:19:59.530Z,101990.91
2023-04-30T03:23:02.111Z,101994.41
2023-04-30T03:26:04.812Z,101996.22
2023-04-30T03:29:07.575Z,102001.47
2023-04-30T03:32:11.509Z,102009.38
2023-04-30T03:35:14.188Z,102003.19
2023-04-30T03:38:16.768Z,101999.69
2023-04-30T03:41:19.715Z,101992.69
2023-04-30T03:44:23.016Z,102001.47
2023-04-30T03:47:26.990Z,102012.00
2023-04-30T03:50:29.671Z,102010.22
2023-04-30T03:53:32.312Z,102008.50
2023-04-30T03:56:35.367Z,102013.75
2023-04-30T03:59:38.058Z,102005.84
2023-04-30T04:02:42.207Z,102016.38
2023-04-30T04:05:44.957Z,102020.78
2023-04-30T04:08:47.660Z,102025.16
2023-04-30T04:11:50.246Z,102017.28
2023-04-30T04:14:52.809Z,102019.88
2023-04-30T04:17:56.828Z,102019.03
2023-04-30T04:20:59.423Z,102018.16
2023-04-30T04:24:08.190Z,102027.78
2023-04-30T04:27:10.789Z,102027.78
2023-04-30T04:30:13.857Z,102029.53
2023-04-30T04:33:17.815Z,102032.19
2023-04-30T04:36:20.389Z,102031.31
2023-04-30T04:39:22.970Z,102043.59
2023-04-30T04:42:25.879Z,102035.69
2023-04-30T04:45:28.557Z,102046.22
2023-04-30T04:48:32.610Z,102042.69
2023-04-30T04:51:35.284Z,102044.44
2023-04-30T04:54:37.929Z,102053.22
2023-04-30T04:57:41.935Z,102052.34
2023-04-30T05:00:45.224Z,102057.63
2023-04-30T05:03:49.584Z,102063.75
2023-04-30T05:06:52.502Z,102061.13
2023-04-30T05:09:55.344Z,102069.00
2023-04-30T05:12:58.261Z,102069.00
2023-04-30T05:16:00.891Z,102062.81
2023-04-30T05:19:04.992Z,102068.06
2023-04-30T05:22:07.616Z,102072.34
2023-04-30T05:25:11.058Z,102080.22
2023-04-30T05:28:13.655Z,102081.97
2023-04-30T05:31:16.745Z,102090.63
2023-04-30T05:34:21.475Z,102077.34
2023-04-30T05:37:24.098Z,102086.09
2023-04-30T05:40:26.752Z,102085.13
2023-04-30T05:43:29.399Z,102085.91
2023-04-30T05:46:32.297Z,102091.06
2023-04-30T05:49:36.636Z,102099.72
2023-04-30T05:52:39.331Z,102094.38
2023-04-30T05:55:42.256Z,102102.09
2023-04-30T05:58:44.830Z,102108.22
2023-04-30T06:01:47.806Z,102103.66
2023-04-30T06:04:51.814Z,102109.81
2023-04-30T06:07:54.436Z,102109.56
2023-04-30T06:10:57.370Z,102111.59
2023-04-30T06:14:00.214Z,102116.72
2023-04-30T06:17:03.054Z,102104.16
2023-04-30T06:20:08.447Z,102103.88
2023-04-30T06:23:11.090Z,102109.91
2023-04-30T06:26:14.967Z,102108.88
2023-04-30T06:29:17.549Z,102104.53
2023-04-30T06:32:20.149Z,102117.84
2023-04-30T06:35:24.433Z,102117.78
2023-04-30T06:38:27.038Z,102131.28
2023-04-30T06:41:29.590Z,102125.59
2023-04-30T06:44:33.067Z,102132.34
2023-04-30T06:47:37.930Z,102129.75
2023-04-30T06:50:45.079Z,102129.25
2023-04-30T06:53:47.812Z,102126.94
2023-04-30T06:56:50.489Z,102134.19
2023-04-30T06:59:53.408Z,102135.59
2023-04-30T07:02:57.217Z,102128.94
2023-04-30T07:06:01.424Z,102137.34
2023-04-30T07:09:04.428Z,102134.63
2023-04-30T07:12:07.137Z,102144.78
2023-04-30T07:15:10.446Z,102142.00
2023-04-30T07:18:13.152Z,102143.41
2023-04-30T07:21:17.181Z,102138.28
2023-04-30T07:24:19.791Z,102151.97
2023-04-30T07:27:22.362Z,102142.63
2023-04-30T07:30:25.418Z,102144.06
2023-04-30T07:33:28.111Z,102144.84
2023-04-30T07:36:32.081Z,102143.25
2023-04-30T07:39:34.839Z,102145.63
2023-04-30T07:42:37.418Z,102146.41
2023-04-30T07:45:40.168Z,102149.59
2023-04-30T07:48:42.964Z,102140.91
2023-04-30T07:51:47.024Z,102141.78
2023-04-30T07:54:49.934Z,102150.00
2023-04-30T07:57:52.527Z,102148.00
2023-04-30T08:00:55.122Z,102164.56
2023-04-30T08:03:57.819Z,102157.28
2023-04-30T08:07:02.634Z,102153.34
2023-04-30T08:10:05.985Z,102151.28
2023-04-30T08:13:08.552Z,102149.44
2023-04-30T08:16:11.385Z,102155.25
2023-04-30T08:19:14.088Z,102163.06
2023-04-30T08:22:18.097Z,102160.94
2023-04-30T08:25:20.854Z,102149.63
2023-04-30T08:28:23.485Z,102160.75
2023-04-30T08:31:26.336Z,102156.84
2023-04-30T08:34:28.969Z,102161.03
2023-04-30T08:37:32.948Z,102154.75
2023-04-30T08:40:50.396Z,102153.50
2023-04-30T08:43:54.660Z,102158.66
2023-04-30T08:46:58.908Z,102164.22
2023-04-30T08:50:01.569Z,102162.06
2023-04-30T08:53:05.669Z,102154.59
2023-04-30T08:56:11.472Z,102143.63
2023-04-30T08:59:14.555Z,102160.63
2023-04-30T09:02:17.651Z,102155.19
2023-04-30T09:05:20.544Z,102152.25
2023-04-30T09:08:46.908Z,102158.59
2023-04-30T09:11:49.549Z,102156.84
2023-04-30T09:15:03.475Z,102158.88
2023-04-30T09:18:11.193Z,102157.75
2023-04-30T09:21:13.969Z,102157.22
2023-04-30T09:24:18.646Z,102158.28
2023-04-30T09:27:24.064Z,102154.84
2023-04-30T09:30:33.601Z,102152.44
2023-04-30T09:33:47.213Z,102156.50
2023-04-30T09:36:54.701Z,102154.69
2023-04-30T09:39:58.769Z,102154.41
2023-04-30T09:43:01.543Z,102165.97
2023-04-30T09:46:04.868Z,102155.81
2023-04-30T09:49:08.185Z,102142.84
2023-04-30T09:52:11.279Z,102138.47
2023-04-30T09:55:15.311Z,102132.41
2023-04-30T09:58:19.960Z,102141.97
2023-04-30T10:01:26.354Z,102135.13
2023-04-30T10:04:29.941Z,102136.25
2023-04-30T10:07:37.391Z,102130.47
2023-04-30T10:10:44.129Z,102122.59
2023-04-30T10:13:53.827Z,102116.16
2023-04-30T10:16:59.973Z,102109.56
2023-04-30T10:20:06.425Z,102113.50
2023-04-30T10:23:09.408Z,102111.03
2023-04-30T10:26:13.641Z,102113.25
2023-04-30T10:29:17.825Z,102118.53
2023-04-30T10:32:21.562Z,102108.81
2023-04-30T10:35:28.164Z,102116.00
2023-04-30T10:38:32.418Z,102107.00
2023-04-30T10:41:36.445Z,102106.56
2023-04-30T10:44:39.084Z,102099.75
2023-04-30T10:47:43.719Z,102103.19
2023-04-30T10:50:47.156Z,102096.63
2023-04-30T10:53:51.696Z,102097.22
2023-04-30T10:56:58.201Z,102084.41
2023-04-30T11:00:21.706Z,102084.66
2023-04-30T11:03:25.018Z,102084.53
2023-04-30T11:06:47.768Z,102078.16
2023-04-30T11:09:50.532Z,102077.41
2023-04-30T11:12:56.473Z,102080.31
2023-04-30T11:16:04.520Z,102065.97
2023-04-30T11:19:10.047Z,102069.56
2023-04-30T11:22:19.366Z,102073.47
2023-04-30T11:25:23.487Z,102059.97
2023-04-30T11:28:28.419Z,102066.44
2023-04-30T11:31:34.742Z,102069.97
2023-04-30T11:34:38.996Z,102070.88
2023-04-30T11:37:43.822Z,102062.31
2023-04-30T11:40:48.860Z,102067.38
2023-04-30T11:43:52.851Z,102065.31
2023-04-30T11:46:56.057Z,102055.38
2023-04-30T11:49:58.743Z,102052.88
2023-04-30T11:53:03.649Z,102050.09
2023-04-30T11:56:07.129Z,102055.97
2023-04-30T11:59:13.920Z,102052.31
2023-04-30T12:02:18.398Z,102048.41
2023-04-30T12:05:22.818Z,102058.59
2023-04-30T12:08:25.434Z,102043.94
2023-04-30T12:11:29.732Z,102042.19
2023-04-30T12:14:36.419Z,102046.34
2023-04-30T12:17:39.031Z,102042.59
2023-04-30T12:20:42.959Z,102034.06
2023-04-30T12:23:46.157Z,102030.84
2023-04-30T12:26:48.858Z,102035.38
2023-04-30T12:29:54.980Z,102024.69
2023-04-30T12:33:00.847Z,102023.75
2023-04-30T12:36:03.724Z,102019.16
2023-04-30T12:39:10.582Z,102023.63
2023-04-30T12:42:13.180Z,102016.25
2023-04-30T12:45:51.121Z,102021.41
2023-04-30T12:48:55.760Z,102018.72
2023-04-30T12:52:01.361Z,102017.72
2023-04-30T12:55:16.026Z,102007.50
2023-04-30T12:58:19.898Z,102004.25
2023-04-30T13:01:25.135Z,101998.34
2023-04-30T13:04:28.481Z,102000.84
2023-04-30T13:07:38.496Z,101991.44
2023-04-30T13:10:41.428Z,101986.75
2023-04-30T13:13:44.028Z,101980.41
2023-04-30T13:16:48.628Z,101976.94
2023-04-30T13:19:51.295Z,101978.63
2023-04-30T13:22:54.026Z,101987.03
2023-04-30T13:25:56.658Z,101976.66
2023-04-30T13:28:59.278Z,101977.03
2023-04-30T13:32:04.117Z,101975.63
2023-04-30T13:35:08.340Z,101966.00
2023-04-30T13:38:11.854Z,101966.97
2023-04-30T13:41:14.691Z,101965.69
2023-04-30T13:44:17.871Z,101969.41
2023-04-30T13:47:22.337Z,101956.50
2023-04-30T13:50:25.026Z,101956.66
2023-04-30T13:53:27.750Z,101953.34
2023-04-30T13:56:30.392Z,101957.72
2023-04-30T13:59:33.002Z,101944.22
2023-04-30T14:02:37.094Z,101953.66
2023-04-30T14:05:40.163Z,101941.06
2023-04-30T14:08:42.742Z,101944.56
2023-04-30T14:11:45.340Z,101937.75
2023-04-30T14:14:48.046Z,101936.88
2023-04-30T14:17:52.940Z,101935.16
2023-04-30T14:20:55.567Z,101927.53
2023-04-30T14:23:58.184Z,101928.53
2023-04-30T14:27:02.617Z,101930.25
2023-04-30T14:30:06.046Z,101920.03
2023-04-30T14:33:12.262Z,101913.03
2023-04-30T14:36:14.949Z,101915.53
2023-04-30T14:39:17.592Z,101905.44
2023-04-30T14:42:20.191Z,101909.56
2023-04-30T14:45:22.797Z,101903.81
2023-04-30T14:48:27.951Z,101901.03
2023-04-30T14:51:30.606Z,101902.50
2023-04-30T14:54:33.334Z,101905.09
2023-04-30T14:57:36.412Z,101903.22
2023-04-30T15:00:39.070Z,101898.31
2023-04-30T15:03:43.127Z,101890.00
2023-04-30T15:06:45.873Z,101899.97
2023-04-30T15:09:48.859Z,101881.66
2023-04-30T15:12:51.504Z,101880.81
2023-04-30T15:15:54.296Z,101875.59
2023-04-30T15:18:58.379Z,101884.41
2023-04-30T15:22:00.984Z,101878.81
2023-04-30T15:25:03.906Z,101882.63
2023-04-30T15:28:06.898Z,101884.13
2023-04-30T15:31:11.315Z,101869.00
2023-04-30T15:34:15.332Z,101874.88
2023-04-30T15:37:17.946Z,101867.53
2023-04-30T15:40:20.823Z,101867.63
2023-04-30T15:43:23.586Z,101864.00
2023-04-30T15:46:26.271Z,101868.00
2023-04-30T15:49:30.298Z,101859.44
2023-04-30T15:52:32.913Z,101852.59
2023-04-30T15:55:35.597Z,101855.09
2023-04-30T15:58:38.228Z,101850.03
2023-04-30T16:01:41.354Z,101845.72
2023-04-30T16:04:45.349Z,101845.00
2023-04-30T16:07:48.031Z,101844.22
2023-04-30T16:10:50.677Z,101842.63
2023-04-30T16:13:53.370Z,101840.19
2023-04-30T16:16:56.054Z,101843.19
2023-04-30T16:20:00.503Z,101843.00
2023-04-30T16:23:04.748Z,101834.81
2023-04-30T16:26:07.326Z,101828.66
2023-04-30T16:29:10.103Z,101835.78
2023-04-30T16:32:12.910Z,101835.88
2023-04-30T16:35:16.905Z,101830.78
2023-04-30T16:38:20.458Z,101830.47
2023-04-30T16:41:23.023Z,101820.63
2023-04-30T16:44:25.812Z,101821.47
2023-04-30T16:47:28.802Z,101821.66
2023-04-30T16:50:33.105Z,101815.00
2023-04-30T16:53:35.829Z,101808.91
2023-04-30T16:56:38.410Z,101805.47
2023-04-30T16:59:40.985Z,101804.75
2023-04-30T17:02:45.650Z,101807.56
2023-04-30T17:05:50.858Z,101808.94
2023-04-30T17:08:54.180Z,101801.44
2023-04-30T17:11:56.863Z,101797.56
2023-04-30T17:14:59.438Z,101803.41
2023-04-30T17:18:02.071Z,101795.63
2023-04-30T17:21:06.257Z,101793.31
2023-04-30T17:24:08.869Z,101800.56
2023-04-30T17:27:11.637Z,101801.06
2023-04-30T17:30:15.007Z,101804.47
2023-04-30T17:33:18.039Z,101799.78
2023-04-30T17:36:21.979Z,101798.25
2023-04-30T17:39:25.051Z,101801.03
2023-04-30T17:42:27.753Z,101800.66
2023-04-30T17:45:30.335Z,101794.75
2023-04-30T17:48:32.976Z,101787.19
2023-04-30T17:51:36.995Z,101788.81
2023-04-30T17:54:39.632Z,101786.72
2023-04-30T17:57:42.341Z,101789.28
2023-04-30T18:00:44.973Z,101788.44
2023-04-30T18:03:47.740Z,101797.66
2023-04-30T18:06:51.960Z,101793.06
2023-04-30T18:09:54.822Z,101804.22
2023-04-30T18:12:59.283Z,101806.47
2023-04-30T18:16:01.999Z,101802.44
2023-04-30T18:19:05.032Z,101809.63
2023-04-30T18:22:09.110Z,101801.16
2023-04-30T18:25:12.956Z,101798.13
2023-04-30T18:28:16.103Z,101812.34
2023-04-30T18:31:18.919Z,101809.47
2023-04-30T18:34:21.594Z,101805.38
2023-04-30T18:37:25.644Z,101806.03
2023-04-30T18:40:28.293Z,101807.31
2023-04-30T18:43:30.924Z,101807.63
2023-04-30T18:46:33.515Z,101803.41
2023-04-30T18:49:37.088Z,101806.53
2023-04-30T18:52:41.272Z,101798.19
2023-04-30T18:55:45.287Z,101799.53
2023-04-30T18:58:47.997Z,101801.34
2023-04-30T19:01:50.897Z,101800.84
2023-04-30T19:04:53.565Z,101802.88
2023-04-30T19:07:57.501Z,101806.91
2023-04-30T19:11:00.270Z,101814.28
2023-04-30T19:14:03.799Z,101822.06
2023-04-30T19:17:06.656Z,101820.59
2023-04-30T19:20:10.261Z,101823.06
2023-04-30T19:23:14.184Z,101826.91
2023-04-30T19:26:16.780Z,101822.56
2023-04-30T19:29:19.487Z,101821.78
2023-04-30T19:32:22.145Z,101813.56
2023-04-30T19:35:24.799Z,101814.69
2023-04-30T19:38:28.742Z,101808.75
2023-04-30T19:41:31.340Z,101814.03
2023-04-30T19:44:33.923Z,101824.16
2023-04-30T19:47:38.103Z,101822.56
2023-04-30T19:50:42.532Z,101816.66
2023-04-30T19:53:46.597Z,101823.19
2023-04-30T19:56:52.159Z,101819.13
2023-04-30T19:59:54.901Z,101819.19
2023-04-30T20:02:58.041Z,101818.69
2023-04-30T20:06:01.425Z,101816.22
2023-04-30T20:09:05.493Z,101803.97
2023-04-30T20:12:08.097Z,101811.66
2023-04-30T20:15:11.475Z,101812.88
2023-04-30T20:18:14.158Z,101813.22
2023-04-30T20:21:18.098Z,101810.72
2023-04-30T20:24:23.288Z,101809.91
2023-04-30T20:27:26.755Z,101816.19
2023-04-30T20:30:29.376Z,101812.22
2023-04-30T20:33:32.141Z,101804.34
2023-04-30T20:36:35.884Z,101803.25
2023-04-30T20:39:40.396Z,101799.97
2023-04-30T20:42:43.038Z,101799.97
2023-04-30T20:45:45.899Z,101801.09
2023-04-30T20:48:48.526Z,101811.81
2023-04-30T20:51:51.128Z,101808.72
2023-04-30T20:54:55.085Z,101801.69
2023-04-30T20:57:57.716Z,101794.03
2023-04-30T21:01:00.487Z,101799.66
2023-04-30T21:04:03.409Z,101793.00
2023-04-30T21:07:06.022Z,101800.25
2023-04-30T21:10:11.070Z,101795.00
2023-04-30T21:13:14.887Z,101796.44
2023-04-30T21:16:17.552Z,101787.59
2023-04-30T21:19:20.270Z,101784.41
2023-04-30T21:22:23.211Z,101790.53
2023-04-30T21:25:27.214Z,101789.63
2023-04-30T21:28:29.900Z,101785.50
2023-04-30T21:31:32.680Z,101799.38
2023-04-30T21:34:35.364Z,101789.00
2023-04-30T21:37:38.026Z,101794.47
2023-04-30T21:40:43.802Z,101788.25
2023-04-30T21:43:46.451Z,101790.19
2023-04-30T21:46:49.144Z,101784.97
2023-04-30T21:49:51.868Z,101786.91
2023-04-30T21:52:54.511Z,101774.72
2023-04-30T21:55:58.478Z,101783.31
2023-04-30T21:59:01.380Z,101773.91
2023-04-30T22:02:13.097Z,101773.19
2023-04-30T22:05:25.092Z,101773.91
2023-04-30T22:08:28.153Z,101765.97
2023-04-30T22:11:32.285Z,101767.06
2023-04-30T22:14:35.047Z,101759.28
2023-04-30T22:17:37.701Z,101758.59
2023-04-30T22:20:40.572Z,101759.53
2023-04-30T22:23:43.446Z,101758.63
2023-04-30T22:26:47.351Z,101760.75
2023-04-30T22:29:50.598Z,101753.59
2023-04-30T22:32:56.781Z,101758.84
2023-04-30T22:36:00.014Z,101752.69
2023-04-30T22:39:03.703Z,101746.81
2023-04-30T22:42:10.240Z,101746.66
2023-04-30T22:45:13.284Z,101737.97
2023-04-30T22:48:16.108Z,101740.47
2023-04-30T22:51:19.102Z,101736.22
2023-04-30T22:54:21.854Z,101740.59
2023-04-30T22:57:26.173Z,101731.81
2023-04-30T23:00:29.461Z,101727.34
2023-04-30T23:03:32.080Z,101726.72
2023-04-30T23:06:35.293Z,101731.16
2023-04-30T23:09:37.918Z,101713.47
2023-04-30T23:12:41.884Z,101714.28
2023-04-30T23:15:45.356Z,101716.97
2023-04-30T23:18:48.796Z,101718.00
2023-04-30T23:21:52.062Z,101713.25
2023-04-30T23:24:57.023Z,101707.84
2023-04-30T23:28:01.174Z,101708.44
2023-04-30T23:31:03.763Z,101705.75
2023-04-30T23:34:06.379Z,101710.97
2023-04-30T23:37:09.028Z,101709.97
2023-04-30T23:40:12.060Z,101695.78
2023-04-30T23:43:16.038Z,101700.16
2023-04-30T23:46:19.126Z,101702.75
2023-04-30T23:49:24.485Z,101702.56
2023-04-30T23:52:27.128Z,101699.19
2023-04-30T23:55:29.734Z,101691.28
2023-04-30T23:58:33.684Z,101686.81
